Waarschuwingen Friesland

Code Groen. Er zijn momenteel geen waarschuwingen van kracht.

Bron: KNMI


Webcam Zuidwest  Webcam Zuidwest


Onweer radar more information blitzortung!


Regen radar more information rain snow radar


Weerstation Noordbergum

Weerstation Luyksgestel

Website Noardburgum


U vindt ons ook hier:

Het Weer Aktueel

UK Metoffice

European Weather Network

Weather Underground

AWEKAS

Citizen Weather Observer Program (CWOP)

HAMweather, WeatherForYou, PWS Weather



IFRIESLA82 History tables / reports. Script startWUhistory.php

Select another period ( hide this area )

Eenheden Periode Custom range Directly to
Metrisch Engels Beide
Dagelijkse Wekelijkse Maandelijkse Jaarlijkse
use both date-selectors for a custom range
previous Dag
With this date

WeatherUnderground graphs for this period ( click here ) Loading the graph can take up to a minute!


Dagelijkse Samenvatting Dinsdag mei 17 2022
Tijd Temp. ( °C ) Dew pt. ( °C ) Wind ( km/h ) van Windvlaag ( km/h ) Luchtdruk ( hPa ) Humid.( % ) Rainrate ( cm ) Zonneschijn ( W/m2 )
Hoog24,7 15,1 14,0 ZW ( 703/2111 ) 16,0 1020,7 91 - 970
Gemiddeld18,5 13,1 7,9 ZW #88/267 10,7 1019,5 73 - 445 #192/267
Laag12,5 11,1 3,0   3,0 1018,3 47 -  
Dagelijkse Tabular details for Dinsdag mei 17 2022
Tijd Temp. ( °C ) Dew pt. ( °C ) Wind ( km/h ) van Windvlaag ( km/h ) Luchtdruk ( hPa ) Humid.( % ) Rainrate ( cm ) Zonneschijn ( W/m2 )
00:04 14,7 12,7 8,0 ZW 10,0 1018,3 88 - -
00:09 14,7 12,7 10,0 ZZW 10,0 1018,3 88 - -
00:14 14,7 12,7 8,0 ZZW 10,0 1018,3 88 - -
00:19 14,6 12,6 6,0 ZZW 10,0 1018,3 88 - -
00:24 14,6 12,6 6,0 ZW 8,0 1018,3 88 - -
00:29 14,6 12,6 8,0 ZZW 10,0 1018,3 88 - -
00:34 14,4 12,4 6,0 ZW 8,0 1018,3 88 - -
00:39 14,4 12,4 6,0 ZZW 8,0 1018,3 88 - -
00:44 14,3 12,3 6,0 ZZW 10,0 1018,3 88 - -
00:49 14,3 12,3 8,0 ZZW 10,0 1018,3 88 - -
00:54 14,2 12,2 6,0 ZZW 8,0 1018,3 88 - -
00:59 14,1 12,1 10,0 ZZW 10,0 1018,3 88 - -
01:04 14,1 12,3 6,0 ZZW 6,0 1018,3 89 - -
01:09 14,1 12,3 6,0 ZZW 8,0 1018,3 89 - -
01:14 14,0 12,2 8,0 ZZW 8,0 1018,3 89 - -
01:19 14,0 12,2 11,0 ZZW 11,0 1018,3 89 - -
01:24 14,0 12,2 10,0 ZZW 11,0 1018,3 89 - -
01:29 14,0 12,2 8,0 ZZW 10,0 1018,3 89 - -
01:34 13,9 12,1 11,0 ZZW 11,0 1018,3 89 - -
01:39 13,9 12,1 10,0 ZZW 11,0 1018,6 89 - -
01:44 13,9 12,1 6,0 ZZW 10,0 1018,3 89 - -
01:49 13,9 12,1 10,0 ZW 11,0 1018,6 89 - -
01:54 13,8 12,0 10,0 ZZW 11,0 1018,6 89 - -
01:59 13,8 12,0 8,0 ZZW 10,0 1018,6 89 - -
02:04 13,8 12,0 8,0 ZZW 11,0 1018,6 89 - -
02:09 13,8 12,0 8,0 ZW 8,0 1018,6 89 - -
02:14 13,7 11,9 10,0 ZW 11,0 1018,6 89 - -
02:19 13,7 11,9 6,0 ZZW 10,0 1018,6 89 - -
02:24 13,7 11,9 10,0 ZZW 10,0 1018,6 89 - -
02:29 13,6 11,8 8,0 ZZW 10,0 1018,6 89 - -
02:34 13,6 11,8 8,0 ZZW 10,0 1018,6 89 - -
02:39 13,5 11,8 6,0 ZW 10,0 1018,3 90 - -
02:44 13,4 11,8 10,0 ZZW 10,0 1018,6 90 - -
02:49 13,4 11,8 8,0 ZZW 10,0 1018,6 90 - -
02:54 13,4 11,8 10,0 ZZW 11,0 1018,3 90 - -
02:59 13,3 11,7 8,0 ZZW 11,0 1018,6 90 - -
03:04 13,3 11,7 10,0 ZZW 13,0 1018,3 90 - -
03:09 13,4 11,8 6,0 ZZW 13,0 1018,3 90 - -
03:14 13,3 11,7 10,0 ZZW 13,0 1018,3 90 - -
03:19 13,4 11,8 8,0 ZW 11,0 1018,3 90 - -
03:24 13,4 11,8 8,0 ZZW 10,0 1018,3 90 - -
03:29 13,3 11,7 10,0 ZZW 10,0 1018,3 90 - -
03:34 13,4 11,8 8,0 ZW 11,0 1018,3 90 - -
03:39 13,4 11,8 6,0 ZW 10,0 1018,3 90 - -
03:44 13,4 11,8 8,0 ZZW 11,0 1018,3 90 - -
03:49 13,4 11,8 6,0 ZW 11,0 1018,3 90 - -
03:54 13,4 11,8 10,0 ZW 11,0 1018,3 90 - -
03:59 13,3 11,7 10,0 ZZW 11,0 1018,3 90 - -
04:04 13,3 11,7 8,0 ZW 10,0 1018,3 90 - -
04:09 13,3 11,7 10,0 ZZW 10,0 1018,3 90 - -
04:14 13,3 11,7 8,0 ZZW 10,0 1018,3 90 - -
04:19 13,3 11,7 8,0 ZZW 11,0 1018,3 90 - -
04:24 13,3 11,7 10,0 ZW 10,0 1018,3 90 - -
04:29 13,2 11,6 6,0 ZW 10,0 1018,6 90 - -
04:34 13,2 11,6 6,0 ZZW 10,0 1018,6 90 - -
04:39 13,1 11,5 8,0 ZZW 11,0 1018,6 90 - -
04:44 13,1 11,5 10,0 ZZW 11,0 1018,6 90 - -
04:49 13,0 11,4 6,0 ZZW 10,0 1018,6 90 - -
04:54 12,9 11,3 8,0 ZW 10,0 1018,6 90 - -
04:59 12,9 11,4 8,0 ZZW 10,0 1018,6 91 - -
05:04 12,8 11,4 13,0 ZZW 13,0 1018,6 91 - -
05:09 12,8 11,4 13,0 ZZW 13,0 1018,6 91 - -
05:14 12,8 11,4 10,0 ZW 13,0 1018,6 91 - -
05:19 12,8 11,4 10,0 ZW 13,0 1018,6 91 - -
05:24 12,7 11,3 8,0 ZW 13,0 1018,6 91 - -
05:29 12,7 11,3 8,0 ZW 13,0 1018,6 91 - -
05:34 12,7 11,3 10,0 ZW 10,0 1018,6 91 - 5
05:39 12,6 11,2 6,0 ZW 8,0 1018,6 91 - 7
05:44 12,6 11,2 6,0 ZW 10,0 1019,0 91 - 11
05:49 12,6 11,2 5,0 ZW 8,0 1019,0 91 - 12
05:54 12,5 11,1 8,0 ZW 8,0 1019,0 91 - 18
05:59 12,5 11,1 8,0 ZW 10,0 1019,0 91 - 28
06:04 12,5 11,1 8,0 ZW 10,0 1019,0 91 - 39
06:09 12,6 11,2 6,0 ZW 8,0 1019,0 91 - 44
06:14 12,7 11,3 6,0 ZW 10,0 1019,0 91 - 47
06:19 12,7 11,3 6,0 ZW 10,0 1019,0 91 - 53
06:24 12,8 11,4 6,0 ZW 10,0 1019,0 91 - 53
06:29 12,8 11,4 6,0 ZW 10,0 1019,0 91 - 53
06:34 12,9 11,5 6,0 ZW 8,0 1019,0 91 - 53
06:39 12,9 11,3 5,0 ZW 6,0 1019,0 90 - 51
06:44 12,9 11,3 6,0 ZW 6,0 1019,0 90 - 49
06:49 12,9 11,3 5,0 ZW 5,0 1019,0 90 - 51
06:54 13,0 11,4 6,0 ZW 6,0 1019,0 90 - 58
06:59 13,1 11,5 6,0 ZZW 8,0 1019,0 90 - 77
07:04 13,2 11,6 10,0 ZW 10,0 1019,0 90 - 113
07:09 13,3 11,7 6,0 ZW 10,0 1019,0 90 - 121
07:14 13,4 11,8 8,0 ZW 8,0 1019,0 90 - 155
07:19 13,7 12,1 5,0 ZW 6,0 1019,0 90 - 197
07:24 14,0 12,4 8,0 ZW 11,0 1019,0 90 - 227
07:29 14,2 12,6 6,0 ZW 11,0 1019,3 90 - 243
07:34 14,6 12,8 6,0 ZW 8,0 1019,3 90 - 246
07:39 14,7 12,9 10,0 ZW 11,0 1019,3 89 - 243
07:44 14,9 13,1 8,0 ZW 11,0 1019,3 89 - 206
07:49 15,1 13,1 6,0 ZW 11,0 1019,3 89 - 206
07:54 15,2 13,2 8,0 ZZW 11,0 1019,6 88 - 185
07:59 15,2 13,2 8,0 ZW 11,0 1019,6 88 - 155
08:04 15,3 13,3 10,0 ZW 11,0 1019,6 88 - 197
08:09 15,4 13,4 13,0 ZW 15,0 1019,6 88 - 220
08:14 15,5 13,4 11,0 ZW 15,0 1019,6 88 - 193
08:19 15,5 13,3 6,0 Zuiden 13,0 1019,6 87 - 192
08:24 15,5 13,3 11,0 ZZW 13,0 1019,6 87 - 271
08:29 15,7 13,5 8,0 ZW 11,0 1019,6 87 - 295
08:34 15,8 13,6 13,0 ZW 13,0 1019,6 87 - 311
08:39 15,9 13,6 11,0 ZW 13,0 1020,0 87 - 360
08:44 16,1 13,8 6,0 WZW 8,0 1020,0 86 - 367
08:49 16,3 14,0 11,0 ZW 13,0 1020,0 86 - 364
08:54 16,4 13,9 11,0 ZW 15,0 1020,0 85 - 338
08:59 16,5 13,8 13,0 ZW 13,0 1020,0 84 - 364
09:04 16,5 13,8 8,0 ZW 11,0 1020,3 84 - 410
09:09 16,7 14,0 5,0 ZW 13,0 1020,3 84 - 410
09:14 16,9 14,1 5,0 WZW 13,0 1020,3 84 - 381
09:19 17,1 14,2 8,0 WZW 8,0 1020,3 83 - 390
09:24 17,3 14,2 5,0 Westen 6,0 1020,3 82 - 411
09:29 17,3 14,2 8,0 Westen 10,0 1020,7 82 - 464
09:34 17,3 13,9 6,0 WNW 11,0 1020,7 81 - 436
09:39 17,4 13,9 6,0 Westen 8,0 1020,7 80 - 438
09:44 17,4 14,1 5,0 WZW 11,0 1020,7 81 - 459
09:49 17,5 14,0 6,0 NW 8,0 1020,7 80 - 494
09:54 17,7 14,2 6,0 Westen 10,0 1020,7 80 - 469
09:59 17,8 14,3 8,0 ZW 10,0 1020,7 80 - 522
10:04 17,9 14,4 6,0 WNW 13,0 1020,7 80 - 540
10:09 18,1 14,2 8,0 NW 13,0 1020,7 79 - 563
10:14 18,3 14,4 8,0 ZW 13,0 1020,7 78 - 585
10:19 18,4 14,4 13,0 Westen 13,0 1020,7 78 - 585
10:24 18,4 14,3 8,0 WZW 13,0 1020,7 77 - 568
10:29 18,4 14,1 6,0 WNW 13,0 1020,7 76 - 594
10:34 18,5 14,0 10,0 NW 11,0 1020,7 75 - 606
10:39 19,0 14,5 5,0 NW 8,0 1020,7 75 - 628
10:44 19,1 14,6 5,0 WNW 8,0 1020,7 75 - 626
10:49 19,0 14,7 8,0 Westen 10,0 1020,7 76 - 624
10:54 19,4 14,9 8,0 Westen 10,0 1020,7 76 - 635
10:59 19,7 14,9 6,0 ZW 11,0 1020,7 75 - 647
11:04 19,9 14,5 6,0 WZW 13,0 1020,7 71 - 636
11:09 20,1 14,6 10,0 ZW 11,0 1020,7 71 - 664
11:14 20,5 14,9 11,0 ZZW 13,0 1020,7 71 - 701
11:19 20,7 14,9 10,0 ZW 13,0 1020,7 70 - 693
11:24 20,8 15,0 6,0 ZZW 11,0 1020,7 70 - 693
11:29 20,8 15,1 6,0 ZW 13,0 1020,7 70 - 701
11:34 20,7 14,8 10,0 ZW 15,0 1020,7 69 - 728
11:39 21,2 15,0 11,0 ZZW 15,0 1020,7 69 - 735
11:44 21,3 14,9 10,0 ZW 15,0 1020,7 67 - 710
11:49 21,3 14,6 10,0 ZZW 13,0 1020,7 66 - 705
11:54 21,4 14,5 10,0 ZW 10,0 1020,7 65 - 710
11:59 21,7 14,6 8,0 ZW 8,0 1020,7 64 - 724
12:04 21,6 13,8 6,0 ZW 10,0 1020,7 62 - 722
12:09 21,8 14,7 8,0 WZW 11,0 1020,7 64 - 724
12:14 21,8 13,9 10,0 Westen 11,0 1020,7 61 - 735
12:19 21,9 13,8 8,0 ZW 11,0 1020,7 60 - 738
12:24 22,1 13,7 8,0 ZW 11,0 1020,7 59 - 737
12:29 22,2 14,1 6,0 ZW 10,0 1020,7 60 - 749
12:34 22,4 13,4 6,0 WZW 11,0 1020,7 57 - 749
12:39 22,2 12,6 5,0 Westen 6,0 1020,7 55 - 744
12:44 22,3 13,6 5,0 WZW 8,0 1020,7 58 - 749
12:49 22,7 13,1 10,0 ZW 15,0 1020,7 55 - 756
12:54 22,7 13,2 5,0 WZW 15,0 1020,7 55 - 772
12:59 22,6 13,6 5,0 Westen 8,0 1020,7 57 - 784
13:04 23,1 13,6 13,0 ZW 13,0 1020,7 55 - 772
13:09 23,2 13,6 10,0 ZZW 13,0 1020,7 55 - 770
13:14 23,3 13,5 10,0 ZW 15,0 1020,7 54 - 773
13:19 23,2 13,4 8,0 ZZW 10,0 1020,7 54 - 773
13:24 23,1 13,0 13,0 ZW 15,0 1020,7 53 - 777
13:29 23,1 12,4 5,0 WZW 8,0 1020,7 51 - 777
13:34 23,1 12,4 5,0 Westen 8,0 1020,3 51 - 791
13:39 23,2 12,8 11,0 ZZW 13,0 1020,3 52 - 838
13:44 23,3 12,8 8,0 ZZW 13,0 1020,3 52 - 777
13:49 23,6 12,7 8,0 ZW 13,0 1020,3 51 - 773
13:54 23,6 13,0 5,0 WZW 13,0 1020,3 52 - 775
13:59 23,4 13,0 10,0 ZZW 10,0 1020,3 52 - 791
14:04 23,8 12,5 8,0 ZZW 15,0 1020,3 50 - 791
14:09 23,7 11,6 10,0 WZW 15,0 1020,3 47 - 768
14:14 23,7 12,3 11,0 ZZW 13,0 1020,3 49 - 782
14:19 23,8 12,8 8,0 ZZW 13,0 1020,3 50 - 770
14:24 23,8 11,7 5,0 ZW 8,0 1020,3 47 - 786
14:29 23,6 12,6 5,0 ZW 11,0 1020,0 50 - 858
14:34 24,0 12,8 6,0 ZW 11,0 1020,0 50 - 886
14:39 24,1 12,3 10,0 ZW 10,0 1020,0 48 - 886
14:44 23,7 11,5 5,0 Westen 6,0 1020,0 47 - 568
14:49 23,3 12,0 3,0 NW 8,0 1020,0 49 - 970
14:54 24,4 13,3 11,0 Zuiden 11,0 1020,0 52 - 919
14:59 24,7 13,5 10,0 ZW 11,0 1020,0 50 - 849
15:04 24,7 13,0 6,0 ZW 11,0 1020,0 49 - 793
15:09 24,5 13,1 8,0 Westen 13,0 1020,0 49 - 814
15:14 24,1 12,4 3,0 ZZO 6,0 1020,0 48 - 800
15:19 24,2 13,0 6,0 ZW 10,0 1020,0 50 - 784
15:24 24,5 13,3 11,0 Westen 11,0 1020,0 50 - 751
15:29 24,5 12,8 8,0 ZW 11,0 1020,0 48 - 717
15:34 24,2 12,5 8,0 ONO 11,0 1020,0 48 - 700
15:39 24,1 13,3 6,0 WZW 8,0 1019,6 51 - 691
15:44 24,6 14,1 10,0 ZZW 15,0 1019,6 53 - 686
15:49 24,7 13,6 10,0 ZW 16,0 1019,6 50 - 675
15:54 24,7 13,3 5,0 ZW 6,0 1019,6 49 - 666
15:59 24,6 13,2 3,0 WZW 16,0 1019,6 49 - 659
16:04 24,2 12,8 3,0 Westen 3,0 1019,6 49 - 661
16:09 24,1 14,2 13,0 NNO 15,0 1019,6 54 - 686
16:14 23,9 14,6 5,0 NO 6,0 1019,6 56 - 680
16:19 23,9 14,2 13,0 NNO 15,0 1019,6 55 - 722
16:24 23,7 14,1 8,0 NW 13,0 1019,6 55 - 722
16:29 23,7 14,1 13,0 NW 13,0 1019,6 55 - 631
16:34 23,4 13,6 5,0 Noorden 13,0 1019,6 54 - 612
16:39 23,3 13,8 6,0 NNO 8,0 1019,6 55 - 606
16:44 23,5 14,0 3,0 Oosten 10,0 1019,6 56 - 606
16:49 23,6 14,0 5,0 NO 11,0 1019,6 55 - 629
16:54 23,8 14,1 6,0 NNO 8,0 1019,6 55 - 650
16:59 24,2 14,3 5,0 ONO 11,0 1019,6 55 - 650
17:04 24,3 14,4 6,0 OZO 6,0 1019,3 54 - 613
17:09 24,2 14,2 6,0 NNW 10,0 1019,3 54 - 613
17:14 24,1 14,3 6,0 ONO 10,0 1019,6 55 - 510
17:19 23,9 14,3 8,0 NO 11,0 1019,3 55 - 246
17:24 23,7 14,3 11,0 NNO 11,0 1019,3 56 - 478
17:29 23,6 14,3 8,0 NO 13,0 1019,3 56 - 599
17:34 23,8 14,4 5,0 NO 8,0 1019,3 56 - 599
17:39 23,7 14,3 8,0 NO 10,0 1019,3 56 - 403
17:44 23,7 14,4 13,0 NNO 13,0 1019,3 56 - 520
17:49 24,0 14,5 8,0 NNO 11,0 1019,3 56 - 547
17:54 24,2 14,5 11,0 Noorden 13,0 1019,3 55 - 512
17:59 24,3 14,4 11,0 Noorden 13,0 1019,3 54 - 480
18:04 24,2 14,3 13,0 Noorden 13,0 1019,3 54 - 497
18:09 24,2 14,3 8,0 Noorden 16,0 1019,3 54 - 489
18:14 24,2 14,2 11,0 NNO 16,0 1019,3 54 - 471
18:19 24,1 15,0 13,0 NNO 15,0 1019,3 57 - 468
18:24 24,1 14,5 11,0 NNO 11,0 1019,3 55 - 494
18:29 24,2 14,6 8,0 NNO 15,0 1019,3 55 - 497
18:34 24,1 14,5 14,0 NNO 15,0 1019,3 55 - 200
18:39 23,3 14,2 10,0 NNO 15,0 1019,3 58 - 162
18:44 22,9 14,2 10,0 NNO 10,0 1019,3 58 - 302
18:49 23,4 14,6 8,0 NO 13,0 1019,3 58 - 378
18:54 23,4 14,7 10,0 NNO 13,0 1019,3 59 - 192
18:59 22,8 14,1 13,0 ONO 15,0 1019,3 59 - 116
19:04 22,1 14,1 6,0 NNO 13,0 1019,3 61 - 174
19:09 22,0 14,0 6,0 NNO 8,0 1019,3 61 - 253
19:14 22,6 14,4 6,0 Noorden 10,0 1019,3 61 - 359
19:19 23,1 14,4 8,0 NO 10,0 1019,3 59 - 338
19:24 23,2 14,5 13,0 NO 13,0 1019,3 58 - 313
19:29 23,1 14,1 10,0 NO 15,0 1019,3 57 - 264
19:34 22,7 14,0 8,0 NNO 10,0 1019,3 59 - 250
19:39 22,4 13,9 10,0 NNO 15,0 1019,3 59 - 214
19:44 22,3 13,6 6,0 NO 15,0 1019,3 58 - 111
19:49 21,8 13,3 8,0 NO 15,0 1019,3 59 - 86
19:54 21,7 13,3 8,0 NNO 10,0 1019,3 59 - 74
19:59 21,3 13,1 5,0 ONO 6,0 1019,3 60 - 67
20:04 21,2 13,4 8,0 NO 8,0 1019,6 61 - 65
20:09 21,1 13,3 6,0 NO 8,0 1019,3 61 - 51
20:14 20,9 13,2 6,0 ONO 6,0 1019,3 62 - 47
20:19 20,7 13,2 3,0 NO 8,0 1019,3 62 - 46
20:24 20,5 13,4 6,0 NNO 11,0 1019,3 64 - 44
20:29 20,4 13,6 5,0 NNO 10,0 1019,3 66 - 37
20:34 20,1 13,7 8,0 NNO 10,0 1019,3 67 - 32
20:39 19,9 13,8 5,0 NO 8,0 1019,3 68 - 25
20:44 19,8 13,9 3,0 NNO 10,0 1019,3 69 - 21
20:49 19,7 13,9 6,0 ONO 6,0 1019,3 69 - 18
20:54 19,6 13,8 6,0 NO 10,0 1019,3 69 - 18
20:59 19,4 13,3 6,0 ONO 8,0 1019,3 68 - 16
21:04 19,3 13,2 6,0 ONO 10,0 1019,3 68 - 14
21:09 19,3 13,2 8,0 Oosten 8,0 1019,3 68 - 14
21:14 19,1 13,1 5,0 ONO 11,0 1019,3 68 - 12
21:19 19,1 13,1 6,0 ONO 6,0 1019,3 68 - 9
21:24 18,9 12,9 6,0 ONO 6,0 1019,3 68 - 7
21:29 18,8 12,9 6,0 Oosten 10,0 1019,3 69 - 5
21:34 18,7 12,9 5,0 ONO 6,0 1019,3 69 - -
21:39 18,6 12,8 11,0 Oosten 13,0 1019,3 69 - -
21:44 18,6 12,8 10,0 ONO 11,0 1019,3 69 - -
21:49 18,5 12,7 10,0 Oosten 11,0 1019,3 69 - -
21:54 18,4 12,8 13,0 ONO 15,0 1019,3 70 - -
21:59 18,3 12,9 8,0 Oosten 15,0 1019,3 71 - -
22:04 18,2 12,9 10,0 Oosten 11,0 1019,3 71 - -
22:08 18,2 13,1 5,0 Oosten 10,0 1019,6 72 - -
22:12 18,0 13,1 8,0 Oosten 8,0 1019,3 73 - -
Dagelijkse Samenvatting Dinsdag mei 17 2022
Tijd Temp. ( °C ) Dew pt. ( °C ) Wind ( km/h ) van Windvlaag ( km/h ) Luchtdruk ( hPa ) Humid.( % ) Rainrate ( cm ) Zonneschijn ( W/m2 )
Hoog24,7 15,1 14,0 ZW ( 703/2111 ) 16,0 1020,7 91 - 970
Gemiddeld18,5 13,1 7,9 ZW #88/267 10,7 1019,5 73 - 445 #192/267
Laag12,5 11,1 3,0   3,0 1018,3 47 -  
Dagelijkse Tabular details for Dinsdag mei 17 2022
Tijd Temp. ( °C ) Dew pt. ( °C ) Wind ( km/h ) van Windvlaag ( km/h ) Luchtdruk ( hPa ) Humid.( % ) Rainrate ( cm ) Zonneschijn ( W/m2 )
00:04 14,7 12,7 8,0 ZW 10,0 1018,3 88 - -
00:09 14,7 12,7 10,0 ZZW 10,0 1018,3 88 - -
00:14 14,7 12,7 8,0 ZZW 10,0 1018,3 88 - -
00:19 14,6 12,6 6,0 ZZW 10,0 1018,3 88 - -
00:24 14,6 12,6 6,0 ZW 8,0 1018,3 88 - -
00:29 14,6 12,6 8,0 ZZW 10,0 1018,3 88 - -
00:34 14,4 12,4 6,0 ZW 8,0 1018,3 88 - -
00:39 14,4 12,4 6,0 ZZW 8,0 1018,3 88 - -
00:44 14,3 12,3 6,0 ZZW 10,0 1018,3 88 - -
00:49 14,3 12,3 8,0 ZZW 10,0 1018,3 88 - -
00:54 14,2 12,2 6,0 ZZW 8,0 1018,3 88 - -
00:59 14,1 12,1 10,0 ZZW 10,0 1018,3 88 - -
01:04 14,1 12,3 6,0 ZZW 6,0 1018,3 89 - -
01:09 14,1 12,3 6,0 ZZW 8,0 1018,3 89 - -
01:14 14,0 12,2 8,0 ZZW 8,0 1018,3 89 - -
01:19 14,0 12,2 11,0 ZZW 11,0 1018,3 89 - -
01:24 14,0 12,2 10,0 ZZW 11,0 1018,3 89 - -
01:29 14,0 12,2 8,0 ZZW 10,0 1018,3 89 - -
01:34 13,9 12,1 11,0 ZZW 11,0 1018,3 89 - -
01:39 13,9 12,1 10,0 ZZW 11,0 1018,6 89 - -
01:44 13,9 12,1 6,0 ZZW 10,0 1018,3 89 - -
01:49 13,9 12,1 10,0 ZW 11,0 1018,6 89 - -
01:54 13,8 12,0 10,0 ZZW 11,0 1018,6 89 - -
01:59 13,8 12,0 8,0 ZZW 10,0 1018,6 89 - -
02:04 13,8 12,0 8,0 ZZW 11,0 1018,6 89 - -
02:09 13,8 12,0 8,0 ZW 8,0 1018,6 89 - -
02:14 13,7 11,9 10,0 ZW 11,0 1018,6 89 - -
02:19 13,7 11,9 6,0 ZZW 10,0 1018,6 89 - -
02:24 13,7 11,9 10,0 ZZW 10,0 1018,6 89 - -
02:29 13,6 11,8 8,0 ZZW 10,0 1018,6 89 - -
02:34 13,6 11,8 8,0 ZZW 10,0 1018,6 89 - -
02:39 13,5 11,8 6,0 ZW 10,0 1018,3 90 - -
02:44 13,4 11,8 10,0 ZZW 10,0 1018,6 90 - -
02:49 13,4 11,8 8,0 ZZW 10,0 1018,6 90 - -
02:54 13,4 11,8 10,0 ZZW 11,0 1018,3 90 - -
02:59 13,3 11,7 8,0 ZZW 11,0 1018,6 90 - -
03:04 13,3 11,7 10,0 ZZW 13,0 1018,3 90 - -
03:09 13,4 11,8 6,0 ZZW 13,0 1018,3 90 - -
03:14 13,3 11,7 10,0 ZZW 13,0 1018,3 90 - -
03:19 13,4 11,8 8,0 ZW 11,0 1018,3 90 - -
03:24 13,4 11,8 8,0 ZZW 10,0 1018,3 90 - -
03:29 13,3 11,7 10,0 ZZW 10,0 1018,3 90 - -
03:34 13,4 11,8 8,0 ZW 11,0 1018,3 90 - -
03:39 13,4 11,8 6,0 ZW 10,0 1018,3 90 - -
03:44 13,4 11,8 8,0 ZZW 11,0 1018,3 90 - -
03:49 13,4 11,8 6,0 ZW 11,0 1018,3 90 - -
03:54 13,4 11,8 10,0 ZW 11,0 1018,3 90 - -
03:59 13,3 11,7 10,0 ZZW 11,0 1018,3 90 - -
04:04 13,3 11,7 8,0 ZW 10,0 1018,3 90 - -
04:09 13,3 11,7 10,0 ZZW 10,0 1018,3 90 - -
04:14 13,3 11,7 8,0 ZZW 10,0 1018,3 90 - -
04:19 13,3 11,7 8,0 ZZW 11,0 1018,3 90 - -
04:24 13,3 11,7 10,0 ZW 10,0 1018,3 90 - -
04:29 13,2 11,6 6,0 ZW 10,0 1018,6 90 - -
04:34 13,2 11,6 6,0 ZZW 10,0 1018,6 90 - -
04:39 13,1 11,5 8,0 ZZW 11,0 1018,6 90 - -
04:44 13,1 11,5 10,0 ZZW 11,0 1018,6 90 - -
04:49 13,0 11,4 6,0 ZZW 10,0 1018,6 90 - -
04:54 12,9 11,3 8,0 ZW 10,0 1018,6 90 - -
04:59 12,9 11,4 8,0 ZZW 10,0 1018,6 91 - -
05:04 12,8 11,4 13,0 ZZW 13,0 1018,6 91 - -
05:09 12,8 11,4 13,0 ZZW 13,0 1018,6 91 - -
05:14 12,8 11,4 10,0 ZW 13,0 1018,6 91 - -
05:19 12,8 11,4 10,0 ZW 13,0 1018,6 91 - -
05:24 12,7 11,3 8,0 ZW 13,0 1018,6 91 - -
05:29 12,7 11,3 8,0 ZW 13,0 1018,6 91 - -
05:34 12,7 11,3 10,0 ZW 10,0 1018,6 91 - 5
05:39 12,6 11,2 6,0 ZW 8,0 1018,6 91 - 7
05:44 12,6 11,2 6,0 ZW 10,0 1019,0 91 - 11
05:49 12,6 11,2 5,0 ZW 8,0 1019,0 91 - 12
05:54 12,5 11,1 8,0 ZW 8,0 1019,0 91 - 18
05:59 12,5 11,1 8,0 ZW 10,0 1019,0 91 - 28
06:04 12,5 11,1 8,0 ZW 10,0 1019,0 91 - 39
06:09 12,6 11,2 6,0 ZW 8,0 1019,0 91 - 44
06:14 12,7 11,3 6,0 ZW 10,0 1019,0 91 - 47
06:19 12,7 11,3 6,0 ZW 10,0 1019,0 91 - 53
06:24 12,8 11,4 6,0 ZW 10,0 1019,0 91 - 53
06:29 12,8 11,4 6,0 ZW 10,0 1019,0 91 - 53
06:34 12,9 11,5 6,0 ZW 8,0 1019,0 91 - 53
06:39 12,9 11,3 5,0 ZW 6,0 1019,0 90 - 51
06:44 12,9 11,3 6,0 ZW 6,0 1019,0 90 - 49
06:49 12,9 11,3 5,0 ZW 5,0 1019,0 90 - 51
06:54 13,0 11,4 6,0 ZW 6,0 1019,0 90 - 58
06:59 13,1 11,5 6,0 ZZW 8,0 1019,0 90 - 77
07:04 13,2 11,6 10,0 ZW 10,0 1019,0 90 - 113
07:09 13,3 11,7 6,0 ZW 10,0 1019,0 90 - 121
07:14 13,4 11,8 8,0 ZW 8,0 1019,0 90 - 155
07:19 13,7 12,1 5,0 ZW 6,0 1019,0 90 - 197
07:24 14,0 12,4 8,0 ZW 11,0 1019,0 90 - 227
07:29 14,2 12,6 6,0 ZW 11,0 1019,3 90 - 243
07:34 14,6 12,8 6,0 ZW 8,0 1019,3 90 - 246
07:39 14,7 12,9 10,0 ZW 11,0 1019,3 89 - 243
07:44 14,9 13,1 8,0 ZW 11,0 1019,3 89 - 206
07:49 15,1 13,1 6,0 ZW 11,0 1019,3 89 - 206
07:54 15,2 13,2 8,0 ZZW 11,0 1019,6 88 - 185
07:59 15,2 13,2 8,0 ZW 11,0 1019,6 88 - 155
08:04 15,3 13,3 10,0 ZW 11,0 1019,6 88 - 197
08:09 15,4 13,4 13,0 ZW 15,0 1019,6 88 - 220
08:14 15,5 13,4 11,0 ZW 15,0 1019,6 88 - 193
08:19 15,5 13,3 6,0 Zuiden 13,0 1019,6 87 - 192
08:24 15,5 13,3 11,0 ZZW 13,0 1019,6 87 - 271
08:29 15,7 13,5 8,0 ZW 11,0 1019,6 87 - 295
08:34 15,8 13,6 13,0 ZW 13,0 1019,6 87 - 311
08:39 15,9 13,6 11,0 ZW 13,0 1020,0 87 - 360
08:44 16,1 13,8 6,0 WZW 8,0 1020,0 86 - 367
08:49 16,3 14,0 11,0 ZW 13,0 1020,0 86 - 364
08:54 16,4 13,9 11,0 ZW 15,0 1020,0 85 - 338
08:59 16,5 13,8 13,0 ZW 13,0 1020,0 84 - 364
09:04 16,5 13,8 8,0 ZW 11,0 1020,3 84 - 410
09:09 16,7 14,0 5,0 ZW 13,0 1020,3 84 - 410
09:14 16,9 14,1 5,0 WZW 13,0 1020,3 84 - 381
09:19 17,1 14,2 8,0 WZW 8,0 1020,3 83 - 390
09:24 17,3 14,2 5,0 Westen 6,0 1020,3 82 - 411
09:29 17,3 14,2 8,0 Westen 10,0 1020,7 82 - 464
09:34 17,3 13,9 6,0 WNW 11,0 1020,7 81 - 436
09:39 17,4 13,9 6,0 Westen 8,0 1020,7 80 - 438
09:44 17,4 14,1 5,0 WZW 11,0 1020,7 81 - 459
09:49 17,5 14,0 6,0 NW 8,0 1020,7 80 - 494
09:54 17,7 14,2 6,0 Westen 10,0 1020,7 80 - 469
09:59 17,8 14,3 8,0 ZW 10,0 1020,7 80 - 522
10:04 17,9 14,4 6,0 WNW 13,0 1020,7 80 - 540
10:09 18,1 14,2 8,0 NW 13,0 1020,7 79 - 563
10:14 18,3 14,4 8,0 ZW 13,0 1020,7 78 - 585
10:19 18,4 14,4 13,0 Westen 13,0 1020,7 78 - 585
10:24 18,4 14,3 8,0 WZW 13,0 1020,7 77 - 568
10:29 18,4 14,1 6,0 WNW 13,0 1020,7 76 - 594
10:34 18,5 14,0 10,0 NW 11,0 1020,7 75 - 606
10:39 19,0 14,5 5,0 NW 8,0 1020,7 75 - 628
10:44 19,1 14,6 5,0 WNW 8,0 1020,7 75 - 626
10:49 19,0 14,7 8,0 Westen 10,0 1020,7 76 - 624
10:54 19,4 14,9 8,0 Westen 10,0 1020,7 76 - 635
10:59 19,7 14,9 6,0 ZW 11,0 1020,7 75 - 647
11:04 19,9 14,5 6,0 WZW 13,0 1020,7 71 - 636
11:09 20,1 14,6 10,0 ZW 11,0 1020,7 71 - 664
11:14 20,5 14,9 11,0 ZZW 13,0 1020,7 71 - 701
11:19 20,7 14,9 10,0 ZW 13,0 1020,7 70 - 693
11:24 20,8 15,0 6,0 ZZW 11,0 1020,7 70 - 693
11:29 20,8 15,1 6,0 ZW 13,0 1020,7 70 - 701
11:34 20,7 14,8 10,0 ZW 15,0 1020,7 69 - 728
11:39 21,2 15,0 11,0 ZZW 15,0 1020,7 69 - 735
11:44 21,3 14,9 10,0 ZW 15,0 1020,7 67 - 710
11:49 21,3 14,6 10,0 ZZW 13,0 1020,7 66 - 705
11:54 21,4 14,5 10,0 ZW 10,0 1020,7 65 - 710
11:59 21,7 14,6 8,0 ZW 8,0 1020,7 64 - 724
12:04 21,6 13,8 6,0 ZW 10,0 1020,7 62 - 722
12:09 21,8 14,7 8,0 WZW 11,0 1020,7 64 - 724
12:14 21,8 13,9 10,0 Westen 11,0 1020,7 61 - 735
12:19 21,9 13,8 8,0 ZW 11,0 1020,7 60 - 738
12:24 22,1 13,7 8,0 ZW 11,0 1020,7 59 - 737
12:29 22,2 14,1 6,0 ZW 10,0 1020,7 60 - 749
12:34 22,4 13,4 6,0 WZW 11,0 1020,7 57 - 749
12:39 22,2 12,6 5,0 Westen 6,0 1020,7 55 - 744
12:44 22,3 13,6 5,0 WZW 8,0 1020,7 58 - 749
12:49 22,7 13,1 10,0 ZW 15,0 1020,7 55 - 756
12:54 22,7 13,2 5,0 WZW 15,0 1020,7 55 - 772
12:59 22,6 13,6 5,0 Westen 8,0 1020,7 57 - 784
13:04 23,1 13,6 13,0 ZW 13,0 1020,7 55 - 772
13:09 23,2 13,6 10,0 ZZW 13,0 1020,7 55 - 770
13:14 23,3 13,5 10,0 ZW 15,0 1020,7 54 - 773
13:19 23,2 13,4 8,0 ZZW 10,0 1020,7 54 - 773
13:24 23,1 13,0 13,0 ZW 15,0 1020,7 53 - 777
13:29 23,1 12,4 5,0 WZW 8,0 1020,7 51 - 777
13:34 23,1 12,4 5,0 Westen 8,0 1020,3 51 - 791
13:39 23,2 12,8 11,0 ZZW 13,0 1020,3 52 - 838
13:44 23,3 12,8 8,0 ZZW 13,0 1020,3 52 - 777
13:49 23,6 12,7 8,0 ZW 13,0 1020,3 51 - 773
13:54 23,6 13,0 5,0 WZW 13,0 1020,3 52 - 775
13:59 23,4 13,0 10,0 ZZW 10,0 1020,3 52 - 791
14:04 23,8 12,5 8,0 ZZW 15,0 1020,3 50 - 791
14:09 23,7 11,6 10,0 WZW 15,0 1020,3 47 - 768
14:14 23,7 12,3 11,0 ZZW 13,0 1020,3 49 - 782
14:19 23,8 12,8 8,0 ZZW 13,0 1020,3 50 - 770
14:24 23,8 11,7 5,0 ZW 8,0 1020,3 47 - 786
14:29 23,6 12,6 5,0 ZW 11,0 1020,0 50 - 858
14:34 24,0 12,8 6,0 ZW 11,0 1020,0 50 - 886
14:39 24,1 12,3 10,0 ZW 10,0 1020,0 48 - 886
14:44 23,7 11,5 5,0 Westen 6,0 1020,0 47 - 568
14:49 23,3 12,0 3,0 NW 8,0 1020,0 49 - 970
14:54 24,4 13,3 11,0 Zuiden 11,0 1020,0 52 - 919
14:59 24,7 13,5 10,0 ZW 11,0 1020,0 50 - 849
15:04 24,7 13,0 6,0 ZW 11,0 1020,0 49 - 793
15:09 24,5 13,1 8,0 Westen 13,0 1020,0 49 - 814
15:14 24,1 12,4 3,0 ZZO 6,0 1020,0 48 - 800
15:19 24,2 13,0 6,0 ZW 10,0 1020,0 50 - 784
15:24 24,5 13,3 11,0 Westen 11,0 1020,0 50 - 751
15:29 24,5 12,8 8,0 ZW 11,0 1020,0 48 - 717
15:34 24,2 12,5 8,0 ONO 11,0 1020,0 48 - 700
15:39 24,1 13,3 6,0 WZW 8,0 1019,6 51 - 691
15:44 24,6 14,1 10,0 ZZW 15,0 1019,6 53 - 686
15:49 24,7 13,6 10,0 ZW 16,0 1019,6 50 - 675
15:54 24,7 13,3 5,0 ZW 6,0 1019,6 49 - 666
15:59 24,6 13,2 3,0 WZW 16,0 1019,6 49 - 659
16:04 24,2 12,8 3,0 Westen 3,0 1019,6 49 - 661
16:09 24,1 14,2 13,0 NNO 15,0 1019,6 54 - 686
16:14 23,9 14,6 5,0 NO 6,0 1019,6 56 - 680
16:19 23,9 14,2 13,0 NNO 15,0 1019,6 55 - 722
16:24 23,7 14,1 8,0 NW 13,0 1019,6 55 - 722
16:29 23,7 14,1 13,0 NW 13,0 1019,6 55 - 631
16:34 23,4 13,6 5,0 Noorden 13,0 1019,6 54 - 612
16:39 23,3 13,8 6,0 NNO 8,0 1019,6 55 - 606
16:44 23,5 14,0 3,0 Oosten 10,0 1019,6 56 - 606
16:49 23,6 14,0 5,0 NO 11,0 1019,6 55 - 629
16:54 23,8 14,1 6,0 NNO 8,0 1019,6 55 - 650
16:59 24,2 14,3 5,0 ONO 11,0 1019,6 55 - 650
17:04 24,3 14,4 6,0 OZO 6,0 1019,3 54 - 613
17:09 24,2 14,2 6,0 NNW 10,0 1019,3 54 - 613
17:14 24,1 14,3 6,0 ONO 10,0 1019,6 55 - 510
17:19 23,9 14,3 8,0 NO 11,0 1019,3 55 - 246
17:24 23,7 14,3 11,0 NNO 11,0 1019,3 56 - 478
17:29 23,6 14,3 8,0 NO 13,0 1019,3 56 - 599
17:34 23,8 14,4 5,0 NO 8,0 1019,3 56 - 599
17:39 23,7 14,3 8,0 NO 10,0 1019,3 56 - 403
17:44 23,7 14,4 13,0 NNO 13,0 1019,3 56 - 520
17:49 24,0 14,5 8,0 NNO 11,0 1019,3 56 - 547
17:54 24,2 14,5 11,0 Noorden 13,0 1019,3 55 - 512
17:59 24,3 14,4 11,0 Noorden 13,0 1019,3 54 - 480
18:04 24,2 14,3 13,0 Noorden 13,0 1019,3 54 - 497
18:09 24,2 14,3 8,0 Noorden 16,0 1019,3 54 - 489
18:14 24,2 14,2 11,0 NNO 16,0 1019,3 54 - 471
18:19 24,1 15,0 13,0 NNO 15,0 1019,3 57 - 468
18:24 24,1 14,5 11,0 NNO 11,0 1019,3 55 - 494
18:29 24,2 14,6 8,0 NNO 15,0 1019,3 55 - 497
18:34 24,1 14,5 14,0 NNO 15,0 1019,3 55 - 200
18:39 23,3 14,2 10,0 NNO 15,0 1019,3 58 - 162
18:44 22,9 14,2 10,0 NNO 10,0 1019,3 58 - 302
18:49 23,4 14,6 8,0 NO 13,0 1019,3 58 - 378
18:54 23,4 14,7 10,0 NNO 13,0 1019,3 59 - 192
18:59 22,8 14,1 13,0 ONO 15,0 1019,3 59 - 116
19:04 22,1 14,1 6,0 NNO 13,0 1019,3 61 - 174
19:09 22,0 14,0 6,0 NNO 8,0 1019,3 61 - 253
19:14 22,6 14,4 6,0 Noorden 10,0 1019,3 61 - 359
19:19 23,1 14,4 8,0 NO 10,0 1019,3 59 - 338
19:24 23,2 14,5 13,0 NO 13,0 1019,3 58 - 313
19:29 23,1 14,1 10,0 NO 15,0 1019,3 57 - 264
19:34 22,7 14,0 8,0 NNO 10,0 1019,3 59 - 250
19:39 22,4 13,9 10,0 NNO 15,0 1019,3 59 - 214
19:44 22,3 13,6 6,0 NO 15,0 1019,3 58 - 111
19:49 21,8 13,3 8,0 NO 15,0 1019,3 59 - 86
19:54 21,7 13,3 8,0 NNO 10,0 1019,3 59 - 74
19:59 21,3 13,1 5,0 ONO 6,0 1019,3 60 - 67
20:04 21,2 13,4 8,0 NO 8,0 1019,6 61 - 65
20:09 21,1 13,3 6,0 NO 8,0 1019,3 61 - 51
20:14 20,9 13,2 6,0 ONO 6,0 1019,3 62 - 47
20:19 20,7 13,2 3,0 NO 8,0 1019,3 62 - 46
20:24 20,5 13,4 6,0 NNO 11,0 1019,3 64 - 44
20:29 20,4 13,6 5,0 NNO 10,0 1019,3 66 - 37
20:34 20,1 13,7 8,0 NNO 10,0 1019,3 67 - 32
20:39 19,9 13,8 5,0 NO 8,0 1019,3 68 - 25
20:44 19,8 13,9 3,0 NNO 10,0 1019,3 69 - 21
20:49 19,7 13,9 6,0 ONO 6,0 1019,3 69 - 18
20:54 19,6 13,8 6,0 NO 10,0 1019,3 69 - 18
20:59 19,4 13,3 6,0 ONO 8,0 1019,3 68 - 16
21:04 19,3 13,2 6,0 ONO 10,0 1019,3 68 - 14
21:09 19,3 13,2 8,0 Oosten 8,0 1019,3 68 - 14
21:14 19,1 13,1 5,0 ONO 11,0 1019,3 68 - 12
21:19 19,1 13,1 6,0 ONO 6,0 1019,3 68 - 9
21:24 18,9 12,9 6,0 ONO 6,0 1019,3 68 - 7
21:29 18,8 12,9 6,0 Oosten 10,0 1019,3 69 - 5
21:34 18,7 12,9 5,0 ONO 6,0 1019,3 69 - -
21:39 18,6 12,8 11,0 Oosten 13,0 1019,3 69 - -
21:44 18,6 12,8 10,0 ONO 11,0 1019,3 69 - -
21:49 18,5 12,7 10,0 Oosten 11,0 1019,3 69 - -
21:54 18,4 12,8 13,0 ONO 15,0 1019,3 70 - -
21:59 18,3 12,9 8,0 Oosten 15,0 1019,3 71 - -
22:04 18,2 12,9 10,0 Oosten 11,0 1019,3 71 - -
22:08 18,2 13,1 5,0 Oosten 10,0 1019,6 72 - -
22:12 18,0 13,1 8,0 Oosten 8,0 1019,3 73 - -

Download your copy of this data-set  here

Our weather-data as stored at Weather Underground. Script ontwikkeld door Jim McMurry. Rewritten for template use Leuven-Template

Apparatuur in gebruik:

Weerstation
Davis Vantage pro 2

Weerprogramma
Meteobridge

Weercomputer
Meteobridge Nano SD

Webleverancier
Versio

Davis Vantage pro 2

Meteobridge

Meteobridge Nano SD

Versio